Weather reports worldwide

Advertisment
Pajares/Valgrande, Spain (8031): temperature & dewpoint: 16.06.2018 15:00:00 - 22.06.2018 15:00:00 (CEST)Pajares/Valgrande, Spain (8031): wind speed & gusts: 16.06.2018 15:00:00 - 22.06.2018 15:00:00 (CEST)Pajares/Valgrande, Spain (8031): wind direction: 16.06.2018 15:00:00 - 22.06.2018 15:00:00 (CEST)Pajares/Valgrande, Spain (8031): precipitation: 16.06.2018 15:00:00 - 22.06.2018 15:00:00 (CEST)
Date & Time tt [°C] td [°C] ff [km/h] ff [kn] fx [km/h] fx [kn] dd rr [mm]
22.06.2018 15:00:00 - - - - - - - -
22.06.2018 14:00:00 14,6 13,0 4 2 8 4 NW -
22.06.2018 13:00:00 14,2 12,4 4 2 18 10 NW 0,0
22.06.2018 12:00:00 15,6 13,9 6 4 11 6 NW 0,0
22.06.2018 11:00:00 14,1 12,8 4 2 8 4 NW 0,0
22.06.2018 10:00:00 14,0 12,7 3 1 7 4 NW 0,0
22.06.2018 09:00:00 14,1 12,8 0 0 6 3 N 0,0
22.06.2018 08:00:00 11,5 10,4 1 0 8 4 S -
22.06.2018 07:00:00 11,7 10,6 2 1 5 3 SW 0,1
22.06.2018 06:00:00 11,8 10,6 1 1 5 3 WSW 0,1
22.06.2018 05:00:00 12,0 10,9 2 1 5 3 SW 0,0
22.06.2018 04:00:00 12,1 11,0 0 0 6 3 NNE 0,0
22.06.2018 03:00:00 12,3 11,2 3 1 6 3 N 0,1
22.06.2018 02:00:00 12,4 11,3 1 1 8 4 NNW -
22.06.2018 01:00:00 12,5 11,4 4 2 10 5 NW 0,3
22.06.2018 00:00:00 12,7 11,6 3 1 6 4 NW 0,4
21.06.2018 23:00:00 12,7 11,6 4 2 11 6 NNW 0,4
21.06.2018 22:00:00 12,8 11,7 4 2 11 6 NW 0,5
21.06.2018 21:00:00 12,9 11,8 5 3 10 5 NW 0,6
21.06.2018 20:00:00 13,4 12,3 3 2 11 6 NW -
21.06.2018 19:00:00 13,8 12,6 4 2 14 7 NNW 0,1
21.06.2018 18:00:00 14,0 12,7 6 4 14 7 NNW 0,0
21.06.2018 17:00:00 15,3 13,7 4 2 11 6 NNW 0,4
21.06.2018 16:00:00 15,3 13,4 7 4 15 8 NNW 0,0
21.06.2018 15:00:00 16,7 13,1 6 3 15 8 NW 0,0
21.06.2018 14:00:00 17,7 13,3 3 2 12 6 NNW -
21.06.2018 13:00:00 16,3 12,2 4 2 11 6 NW 0,0
21.06.2018 12:00:00 15,8 13,3 4 2 9 5 NW 0,0
21.06.2018 11:00:00 14,1 12,3 3 1 6 4 NW 0,0
21.06.2018 10:00:00 13,6 12,1 2 1 9 5 NW 0,0
21.06.2018 09:00:00 13,2 11,9 4 2 9 5 WNW 0,1
21.06.2018 08:00:00 12,8 11,2 4 2 12 7 NNW -
21.06.2018 07:00:00 14,0 7,6 4 2 15 8 SW 0,0
21.06.2018 06:00:00 14,6 8,8 13 7 29 16 S 0,0
21.06.2018 05:00:00 14,0 9,8 22 12 32 17 S 0,4
21.06.2018 04:00:00 15,3 9,4 11 6 28 15 S 0,0
21.06.2018 03:00:00 14,6 10,2 8 4 11 6 SSW 0,0
21.06.2018 02:00:00 14,6 11,0 0 0 6 4 N -
21.06.2018 01:00:00 14,8 11,2 3 2 7 4 W 0,0
21.06.2018 00:00:00 14,3 11,2 3 2 9 5 S 0,0
20.06.2018 23:00:00 15,2 12,7 1 1 8 5 W 0,0
20.06.2018 22:00:00 16,2 13,4 1 1 8 5 W 0,0
20.06.2018 21:00:00 16,3 14,3 2 1 9 5 NW 0,0
20.06.2018 20:00:00 16,7 14,1 5 3 13 7 NW -
20.06.2018 19:00:00 19,0 13,2 6 3 16 9 NW 0,0
20.06.2018 18:00:00 20,3 13,1 9 5 17 9 NW 0,0
20.06.2018 17:00:00 20,7 13,0 7 4 18 10 NNW 0,0
20.06.2018 16:00:00 21,0 13,0 6 3 19 10 NNW 0,0
20.06.2018 15:00:00 21,1 12,7 5 3 15 8 NW 0,0
20.06.2018 14:00:00 21,3 11,6 6 3 12 7 NW -
20.06.2018 13:00:00 20,3 10,2 7 4 13 7 NW 0,0
20.06.2018 12:00:00 21,8 10,6 10 5 19 11 ESE 0,0
20.06.2018 11:00:00 20,9 10,4 6 3 16 8 SSE 0,0
20.06.2018 10:00:00 19,2 8,5 11 6 19 10 S 0,0
20.06.2018 09:00:00 18,6 8,5 9 5 13 7 S 0,0
20.06.2018 08:00:00 17,9 10,5 0 0 9 5 N -
20.06.2018 07:00:00 14,2 8,0 8 5 15 8 SSW 0,0
20.06.2018 06:00:00 14,9 3,4 13 7 18 10 SSW 0,0
20.06.2018 05:00:00 15,1 3,2 11 6 15 8 S 0,0
20.06.2018 04:00:00 16,2 3,9 5 3 20 11 S 0,0
20.06.2018 03:00:00 16,3 4,3 13 7 22 12 S 0,0
20.06.2018 02:00:00 16,4 6,8 14 8 22 12 S -
20.06.2018 01:00:00 16,1 6,8 16 8 24 13 S 0,0
20.06.2018 00:00:00 16,4 7,0 17 9 22 12 SSE 0,0
19.06.2018 23:00:00 16,7 7,8 16 9 21 11 S 0,0
19.06.2018 22:00:00 17,8 7,8 12 7 18 10 SSE 0,0
19.06.2018 21:00:00 19,1 11,1 3 2 10 5 SSW 0,0
19.06.2018 20:00:00 18,7 14,1 3 2 10 5 NW -
19.06.2018 19:00:00 19,0 14,2 4 2 11 6 NW 0,0
19.06.2018 18:00:00 19,3 14,1 5 3 13 7 NW 0,0
19.06.2018 17:00:00 19,2 13,6 6 3 14 7 NW 0,0
19.06.2018 16:00:00 19,1 13,1 5 3 14 8 WNW 0,0
19.06.2018 15:00:00 19,1 12,8 6 3 14 7 WNW 0,0
19.06.2018 14:00:00 18,2 12,4 5 3 12 7 NW -
19.06.2018 13:00:00 17,1 10,6 5 3 13 7 NW 0,0
19.06.2018 12:00:00 17,6 9,9 5 3 11 6 NNW 0,0
19.06.2018 11:00:00 17,6 7,6 2 1 8 5 ENE 0,0
19.06.2018 10:00:00 16,7 6,8 3 1 7 4 NE 0,0
19.06.2018 09:00:00 15,5 6,7 1 0 6 4 ESE 0,0
19.06.2018 08:00:00 14,1 6,2 0 0 5 3 ENE -
19.06.2018 07:00:00 10,4 3,9 2 1 9 5 SW 0,0
19.06.2018 06:00:00 10,1 3,8 1 0 7 4 W 0,0
19.06.2018 05:00:00 9,3 3,2 1 0 6 4 S 0,0
19.06.2018 04:00:00 10,7 3,0 1 1 6 3 S 0,0
19.06.2018 03:00:00 10,6 3,8 1 1 12 6 WNW 0,0
19.06.2018 02:00:00 10,9 1,9 3 2 11 6 WNW -
19.06.2018 01:00:00 10,8 3,8 2 1 11 6 W 0,0
19.06.2018 00:00:00 10,9 8,8 4 2 10 6 WNW 0,0
18.06.2018 23:00:00 11,9 10,5 6 3 13 7 WNW 0,0
18.06.2018 22:00:00 12,3 10,9 3 2 9 5 NW 0,0
18.06.2018 21:00:00 13,0 11,4 1 1 10 5 WNW 0,0
18.06.2018 20:00:00 13,9 11,6 5 3 14 8 WNW -
18.06.2018 19:00:00 14,0 11,9 7 4 17 9 WNW 0,0
18.06.2018 18:00:00 15,5 12,2 8 4 19 10 NW 0,0
18.06.2018 17:00:00 16,7 11,8 10 6 24 13 NW 0,0
18.06.2018 16:00:00 17,6 11,2 11 6 24 13 NW 0,0
18.06.2018 15:00:00 17,2 9,8 9 5 22 12 NNW 0,0
18.06.2018 14:00:00 16,2 9,2 10 6 20 11 NW -
18.06.2018 13:00:00 15,6 9,9 10 5 21 11 NNW 0,0
18.06.2018 12:00:00 15,0 9,2 10 5 16 9 NW 0,0
18.06.2018 11:00:00 14,0 6,8 8 5 14 7 NW 0,0
18.06.2018 10:00:00 13,6 8,0 8 4 18 10 NW 0,0
18.06.2018 09:00:00 13,3 7,7 9 5 14 8 NW 0,0
18.06.2018 08:00:00 13,6 6,8 6 3 12 6 NW -
18.06.2018 07:00:00 11,0 3,0 1 0 8 4 NW 0,0
18.06.2018 06:00:00 11,3 1,3 0 0 6 3 N 0,0
18.06.2018 05:00:00 9,9 -2,2 4 2 13 7 WSW 0,0
18.06.2018 04:00:00 10,1 0,2 8 4 13 7 SSW 0,0
18.06.2018 03:00:00 10,2 3,2 9 5 12 7 SSW 0,0
18.06.2018 02:00:00 10,2 5,9 7 4 11 6 SSW -
18.06.2018 01:00:00 10,5 7,7 5 3 8 4 SSW 0,0
18.06.2018 00:00:00 10,3 7,0 2 1 8 4 SSW 0,0
17.06.2018 23:00:00 12,0 9,7 4 2 8 4 W 0,0
17.06.2018 22:00:00 12,7 10,3 3 1 8 5 W 0,0
17.06.2018 21:00:00 13,2 10,4 3 2 16 9 NW 0,0
17.06.2018 20:00:00 15,4 10,4 9 5 18 10 NNW -
17.06.2018 19:00:00 15,9 9,6 11 6 19 11 NW 0,0
17.06.2018 18:00:00 16,7 6,8 9 5 20 11 NW 0,0
17.06.2018 17:00:00 17,0 5,0 9 5 20 11 NNW 0,0
17.06.2018 16:00:00 17,3 3,2 7 4 18 10 NW 0,0
17.06.2018 15:00:00 16,5 2,1 8 5 19 10 NW 0,0
17.06.2018 14:00:00 15,8 1,5 9 5 17 9 NW -
17.06.2018 13:00:00 15,0 -2,0 7 4 14 8 NW 0,0
17.06.2018 12:00:00 14,5 -3,9 10 5 19 11 NW 0,0
17.06.2018 11:00:00 14,1 -5,1 8 5 17 9 NW 0,0
17.06.2018 10:00:00 11,3 8,4 1 0 9 5 NE 0,0
17.06.2018 09:00:00 8,5 5,9 1 1 10 5 S 0,0
17.06.2018 08:00:00 11,4 7,0 1 0 7 4 NNW -
17.06.2018 07:00:00 8,3 4,6 1 1 7 4 NW 0,0
17.06.2018 06:00:00 8,0 5,5 1 1 9 5 W 0,0
17.06.2018 05:00:00 7,9 5,3 7 4 10 5 SSW 0,0
17.06.2018 04:00:00 8,5 7,0 4 2 9 5 SW 0,0
17.06.2018 03:00:00 7,7 6,1 0 0 8 4 SSE 0,0
17.06.2018 02:00:00 7,9 5,9 1 1 6 4 SSW -
17.06.2018 01:00:00 8,6 6,7 7 4 9 5 SSW 0,0
17.06.2018 00:00:00 9,7 8,1 3 1 9 5 S 0,0
16.06.2018 23:00:00 9,9 8,5 4 2 8 5 W 0,0
16.06.2018 22:00:00 9,7 8,3 5 3 15 8 NW 0,0
16.06.2018 21:00:00 10,5 8,9 4 2 13 7 NW 0,0
16.06.2018 20:00:00 11,2 8,9 7 4 16 9 NNW -
16.06.2018 19:00:00 12,8 7,7 8 5 22 12 NNW 0,0
16.06.2018 18:00:00 15,1 7,1 9 5 22 12 NW 0,0
16.06.2018 17:00:00 15,4 7,0 10 5 23 13 NW 0,0
16.06.2018 16:00:00 15,7 6,4 9 5 19 10 NW 0,0
16.06.2018 15:00:00 15,3 4,3 11 6 19 10 N 0,0

tt = temperature
td = dewpoint
ff = wind speed
fx = gusts
dd = wind direction
rr = precipitation

Next stations